Time;durP1;ratioP1;P1;durP2;ratioP2;P2;SDS_P1;SDS_P2;PMS_P1;PMS_P2;Temp;Humidity;BMP_temperature;BMP_pressure;BME280_temperature;BME280_humidity;BME280_pressure;Samples;Min_cycle;Max_cycle;Signal;HPM_P1;HPM_P2
2024/04/01 00:00:37;;;;;;;9.95;1.88;;;12.40;99.90;;;;;;5023113;28;20463;-73
2024/04/01 00:03:03;;;;;;;13.15;1.92;;;12.40;99.90;;;;;;5027264;28;20628;-73
2024/04/01 00:05:29;;;;;;;10.85;1.90;;;12.30;99.90;;;;;;5030440;28;20158;-72
2024/04/01 00:07:56;;;;;;;10.30;2.00;;;12.20;99.90;;;;;;5028851;28;20037;-73
2024/04/01 00:10:22;;;;;;;10.18;1.65;;;12.30;99.90;;;;;;5028603;28;20063;-73
2024/04/01 00:12:48;;;;;;;8.20;1.65;;;12.10;99.90;;;;;;5029271;28;20450;-70
2024/04/01 00:15:16;;;;;;;8.30;1.92;;;12.10;99.90;;;;;;5027663;28;20057;-71
2024/04/01 00:17:43;;;;;;;11.55;2.10;;;;;;;;;;5027423;28;20045;-73
2024/04/01 00:20:09;;;;;;;7.22;1.90;;;11.90;99.90;;;;;;5026811;28;20022;-73
2024/04/01 00:22:34;;;;;;;7.00;1.90;;;11.90;99.90;;;;;;5029347;28;20116;-73
2024/04/01 00:25:00;;;;;;;8.90;1.92;;;11.90;99.90;;;;;;5025121;28;20494;-73
2024/04/01 00:27:26;;;;;;;11.00;2.15;;;11.90;99.90;;;;;;5025378;28;20087;-70
2024/04/01 00:29:52;;;;;;;9.13;1.83;;;11.80;99.90;;;;;;5027475;28;20099;-73
2024/04/01 00:32:17;;;;;;;8.18;1.65;;;11.80;99.90;;;;;;5026124;28;20026;-73
2024/04/01 00:34:43;;;;;;;8.05;1.45;;;11.70;99.90;;;;;;5028398;28;20025;-73
2024/04/01 00:37:09;;;;;;;6.28;1.48;;;11.70;99.90;;;;;;5031265;28;20029;-72
2024/04/01 00:39:34;;;;;;;10.50;2.05;;;11.70;99.90;;;;;;5030298;28;20026;-71
2024/04/01 00:42:00;;;;;;;6.32;1.55;;;11.70;99.90;;;;;;5028255;28;20080;-73
2024/04/01 00:44:25;;;;;;;5.95;1.70;;;11.70;99.90;;;;;;5026071;28;20026;-74
2024/04/01 00:46:51;;;;;;;9.90;1.58;;;11.60;99.90;;;;;;5029341;28;20083;-72
2024/04/01 00:49:18;;;;;;;11.48;1.92;;;11.50;99.90;;;;;;5029415;28;20041;-73
2024/04/01 00:51:44;;;;;;;8.93;1.55;;;11.50;99.90;;;;;;5029441;28;20372;-73
2024/04/01 00:54:10;;;;;;;7.50;1.67;;;11.40;99.90;;;;;;5020723;28;20112;-72
2024/04/01 00:56:39;;;;;;;9.95;1.63;;;11.40;99.90;;;;;;5029873;28;20071;-73
2024/04/01 00:59:05;;;;;;;5.65;1.33;;;11.30;99.90;;;;;;5029653;28;20034;-73
2024/04/01 01:01:33;;;;;;;7.63;2.05;;;11.40;99.90;;;;;;5028006;28;20030;-73
2024/04/01 01:04:00;;;;;;;7.18;1.50;;;11.40;99.90;;;;;;5027734;28;20033;-73
2024/04/01 01:06:26;;;;;;;12.15;1.85;;;11.30;99.90;;;;;;5028520;28;20060;-73
2024/04/01 01:08:52;;;;;;;9.13;1.90;;;11.30;99.90;;;;;;5029131;28;20498;-74
2024/04/01 01:11:18;;;;;;;5.15;1.90;;;11.30;99.90;;;;;;5029668;28;20056;-73
2024/04/01 01:13:44;;;;;;;6.30;1.63;;;11.20;99.90;;;;;;5027991;28;20021;-73
2024/04/01 01:16:10;;;;;;;9.15;1.55;;;11.20;99.90;;;;;;5028834;28;20034;-73
2024/04/01 01:18:36;;;;;;;6.82;1.50;;;11.20;99.90;;;;;;5025062;28;20026;-70
2024/04/01 01:21:02;;;;;;;7.60;1.63;;;11.10;99.90;;;;;;5020721;28;20029;-73
2024/04/01 01:23:28;;;;;;;9.23;2.05;;;11.10;99.90;;;;;;5029239;28;20386;-73
2024/04/01 01:25:54;;;;;;;6.53;1.50;;;11.20;99.90;;;;;;5027557;28;20033;-73
2024/04/01 01:28:20;;;;;;;13.73;2.35;;;11.20;99.90;;;;;;5029754;28;20114;-73
2024/04/01 01:30:46;;;;;;;13.25;2.25;;;11.10;99.90;;;;;;5029007;28;20474;-71
2024/04/01 01:33:11;;;;;;;8.77;2.00;;;11.10;99.90;;;;;;5028036;28;20017;-73
2024/04/01 01:35:38;;;;;;;7.63;1.75;;;11.00;99.90;;;;;;5023654;28;20481;-73
2024/04/01 01:38:04;;;;;;;9.18;1.67;;;11.00;99.90;;;;;;5027232;28;20038;-70
2024/04/01 01:40:30;;;;;;;6.43;1.70;;;10.90;99.90;;;;;;5029870;28;20052;-72
2024/04/01 01:42:56;;;;;;;8.20;1.80;;;11.00;99.90;;;;;;5021557;28;20053;-73
2024/04/01 01:45:21;;;;;;;8.13;1.75;;;10.90;99.90;;;;;;5029343;28;20034;-73
2024/04/01 01:47:47;;;;;;;7.70;1.95;;;10.90;99.90;;;;;;5028700;28;20037;-70
2024/04/01 01:50:13;;;;;;;5.60;1.90;;;10.90;99.90;;;;;;5028934;28;20021;-73
2024/04/01 01:52:38;;;;;;;9.00;2.92;;;10.90;99.90;;;;;;5024517;28;20025;-73
2024/04/01 01:55:05;;;;;;;9.57;1.58;;;10.90;99.90;;;;;;5025132;28;20222;-73
2024/04/01 01:57:32;;;;;;;8.85;1.88;;;10.80;99.90;;;;;;5028679;28;20036;-73
2024/04/01 01:59:57;;;;;;;7.90;2.08;;;10.80;99.90;;;;;;5028178;28;20021;-73
2024/04/01 02:02:23;;;;;;;7.43;2.90;;;10.80;99.90;;;;;;5027597;28;20051;-74
2024/04/01 02:04:49;;;;;;;10.77;2.22;;;10.70;99.90;;;;;;5027226;28;20049;-70
2024/04/01 02:07:15;;;;;;;6.20;2.33;;;10.70;99.90;;;;;;5028564;28;20060;-74
2024/04/01 02:09:40;;;;;;;11.50;3.10;;;10.60;99.90;;;;;;5027567;28;20128;-72
2024/04/01 02:12:09;;;;;;;11.40;3.47;;;10.60;99.90;;;;;;5026590;28;20104;-73
2024/04/01 02:14:36;;;;;;;7.50;3.20;;;10.60;99.90;;;;;;5028463;28;20037;-73
2024/04/01 02:17:07;;;;;;;9.25;3.40;;;10.50;99.90;;;;;;5026761;28;20124;-69
2024/04/01 02:19:35;;;;;;;13.20;2.33;;;10.50;99.90;;;;;;5025418;28;20501;-72
2024/04/01 02:22:01;;;;;;;11.32;2.45;;;10.50;99.90;;;;;;5027402;28;20030;-72
2024/04/01 02:24:28;;;;;;;6.57;1.70;;;10.50;99.90;;;;;;5026816;28;20025;-72
2024/04/01 02:26:54;;;;;;;8.52;1.85;;;10.50;99.90;;;;;;5026706;28;20037;-72
2024/04/01 02:29:20;;;;;;;7.63;1.83;;;10.40;99.90;;;;;;5027974;28;20025;-71
2024/04/01 02:31:49;;;;;;;9.55;1.42;;;10.40;99.90;;;;;;5027532;28;20028;-70
2024/04/01 02:34:15;;;;;;;6.50;1.75;;;10.40;99.90;;;;;;5028523;28;20029;-72
2024/04/01 02:36:41;;;;;;;7.70;1.60;;;10.30;99.90;;;;;;5024547;28;20075;-73
2024/04/01 02:39:16;;;;;;;6.20;1.50;;;10.30;99.90;;;;;;5027311;28;20029;-73
2024/04/01 02:41:45;;;;;;;4.53;1.33;;;10.20;99.90;;;;;;5025752;28;20078;-73
2024/04/01 02:44:12;;;;;;;5.72;1.35;;;10.20;99.90;;;;;;5027563;28;20099;-73
2024/04/01 02:46:39;;;;;;;6.97;1.63;;;10.20;99.90;;;;;;5027165;28;20025;-74
2024/04/01 02:49:05;;;;;;;9.68;1.70;;;10.20;99.90;;;;;;5026796;28;20034;-72
2024/04/01 02:51:31;;;;;;;6.28;1.60;;;10.20;99.90;;;;;;5027574;28;20048;-74
2024/04/01 02:53:56;;;;;;;4.20;1.38;;;10.20;99.90;;;;;;5028085;28;20096;-72
2024/04/01 02:56:22;;;;;;;4.30;1.27;;;10.20;99.90;;;;;;5027379;28;20037;-73
2024/04/01 02:58:49;;;;;;;3.22;1.40;;;10.20;99.90;;;;;;5024289;28;20038;-70
2024/04/01 03:01:15;;;;;;;8.90;1.65;;;10.20;99.90;;;;;;5027252;28;20087;-75
2024/04/01 03:03:41;;;;;;;9.88;1.40;;;10.20;99.90;;;;;;5028326;28;20477;-74
2024/04/01 03:06:07;;;;;;;6.65;1.27;;;10.20;99.90;;;;;;5025779;28;20046;-74
2024/04/01 03:08:33;;;;;;;4.07;1.17;;;10.20;99.90;;;;;;5030318;28;20116;-74
2024/04/01 03:11:00;;;;;;;4.20;1.23;;;10.20;99.90;;;;;;5029041;28;20029;-73
2024/04/01 03:13:26;;;;;;;5.63;1.50;;;10.20;99.90;;;;;;5025292;28;20040;-73
2024/04/01 03:15:53;;;;;;;4.28;1.50;;;10.20;99.90;;;;;;5025667;28;20509;-73
2024/04/01 03:18:19;;;;;;;6.00;1.10;;;10.20;99.90;;;;;;5027626;28;20036;-72
2024/04/01 03:20:46;;;;;;;6.63;1.45;;;10.30;99.90;;;;;;5023787;28;20029;-70
2024/04/01 03:23:13;;;;;;;5.50;1.20;;;10.30;99.90;;;;;;5027778;28;20040;-73
2024/04/01 03:25:38;;;;;;;6.90;1.58;;;10.30;99.90;;;;;;5026934;28;20073;-72
2024/04/01 03:28:04;;;;;;;6.78;2.00;;;10.30;99.90;;;;;;5026463;28;20122;-73
2024/04/01 03:30:30;;;;;;;6.03;1.70;;;10.30;99.90;;;;;;5027952;28;20434;-72
2024/04/01 03:32:55;;;;;;;8.10;1.58;;;10.20;99.90;;;;;;5023427;28;20038;-73
2024/04/01 03:35:21;;;;;;;5.65;1.10;;;10.20;99.90;;;;;;5028226;28;20505;-73
2024/04/01 03:37:47;;;;;;;6.10;1.30;;;10.20;99.90;;;;;;5028441;28;20053;-70
2024/04/01 03:40:13;;;;;;;4.18;1.20;;;10.20;99.90;;;;;;5031959;28;20037;-73
2024/04/01 03:42:38;;;;;;;5.40;1.73;;;10.20;99.90;;;;;;5034614;28;20501;-75
2024/04/01 03:45:06;;;;;;;6.80;1.63;;;10.20;99.90;;;;;;5041106;28;20188;-72
2024/04/01 03:47:35;;;;;;;6.93;1.50;;;10.10;99.90;;;;;;5042933;28;20017;-73
2024/04/01 03:50:02;;;;;;;6.05;1.83;;;10.20;99.90;;;;;;5033178;28;20042;-70
2024/04/01 03:52:28;;;;;;;6.63;1.10;;;10.20;99.90;;;;;;5042958;28;20029;-74
2024/04/01 03:54:53;;;;;;;3.90;1.35;;;10.20;99.90;;;;;;5043873;28;20783;-74
2024/04/01 03:57:19;;;;;;;8.57;1.85;;;10.10;99.90;;;;;;5041457;28;20147;-73
2024/04/01 03:59:45;;;;;;;6.82;1.50;;;10.10;99.90;;;;;;5030600;28;20038;-70
2024/04/01 04:02:10;;;;;;;5.40;1.45;;;10.20;99.90;;;;;;5031330;28;20159;-71
2024/04/01 04:04:36;;;;;;;6.22;1.90;;;10.20;99.90;;;;;;5027113;28;20050;-73
2024/04/01 04:07:02;;;;;;;7.57;1.30;;;10.10;99.90;;;;;;5029971;28;20447;-72
2024/04/01 04:09:28;;;;;;;4.47;1.42;;;10.20;99.90;;;;;;5031524;28;20060;-70
2024/04/01 04:11:54;;;;;;;6.57;1.50;;;10.20;99.90;;;;;;5030370;28;20125;-72
2024/04/01 04:14:25;;;;;;;4.78;1.27;;;10.10;99.90;;;;;;5026934;28;20025;-73
2024/04/01 04:16:50;;;;;;;;;;;10.10;99.90;;;;;;5029191;28;20471;-72
2024/04/01 04:19:20;;;;;;;8.52;1.77;;;10.10;99.90;;;;;;5034318;28;19924;-73
2024/04/01 04:21:47;;;;;;;3.25;1.38;;;10.10;99.90;;;;;;5030089;28;20037;-71
2024/04/01 04:24:16;;;;;;;5.07;1.60;;;10.20;99.90;;;;;;5022881;28;20037;-73
2024/04/01 04:26:42;;;;;;;14.13;2.00;;;10.10;99.90;;;;;;5030774;28;20462;-72
2024/04/01 04:29:07;;;;;;;5.97;1.45;;;10.20;99.90;;;;;;5029722;28;20044;-72
2024/04/01 04:31:33;;;;;;;3.88;1.35;;;10.20;99.90;;;;;;5030486;28;20091;-73
2024/04/01 04:33:59;;;;;;;7.85;1.27;;;10.20;99.90;;;;;;5029559;28;20030;-72
2024/04/01 04:36:25;;;;;;;4.50;2.00;;;10.20;99.90;;;;;;5030551;28;20025;-73
2024/04/01 04:38:50;;;;;;;6.05;1.50;;;10.20;99.90;;;;;;5030184;28;20180;-72
2024/04/01 04:41:17;;;;;;;5.03;1.23;;;10.20;99.90;;;;;;5027797;28;20159;-72
2024/04/01 04:43:46;;;;;;;5.78;1.65;;;10.20;99.90;;;;;;5030253;28;21273;-72
2024/04/01 04:46:15;;;;;;;3.80;1.48;;;10.20;99.90;;;;;;5029110;28;20076;-71
2024/04/01 04:48:41;;;;;;;6.97;1.67;;;10.10;99.90;;;;;;5026777;28;20046;-73
2024/04/01 04:51:07;;;;;;;4.95;1.60;;;10.20;99.90;;;;;;5029690;28;20025;-72
2024/04/01 04:53:33;;;;;;;4.70;1.50;;;10.20;99.90;;;;;;5030028;28;20036;-73
2024/04/01 04:55:59;;;;;;;5.20;1.25;;;10.20;99.90;;;;;;5029165;28;20060;-72
2024/04/01 04:58:24;;;;;;;5.07;1.13;;;10.20;99.90;;;;;;5030247;28;20377;-73
2024/04/01 05:00:50;;;;;;;4.72;1.25;;;10.10;99.90;;;;;;5028402;28;20112;-70
2024/04/01 05:03:15;;;;;;;3.72;1.52;;;10.10;99.90;;;;;;5030668;28;20124;-73
2024/04/01 05:05:41;;;;;;;8.00;1.42;;;10.10;99.90;;;;;;5023965;28;20054;-72
2024/04/01 05:08:06;;;;;;;7.60;1.27;;;10.20;99.90;;;;;;5027934;28;20398;-73
2024/04/01 05:10:34;;;;;;;2.92;1.35;;;10.20;99.90;;;;;;5029230;28;20033;-72
2024/04/01 05:12:59;;;;;;;6.53;1.40;;;10.20;99.90;;;;;;5027327;28;20033;-72
2024/04/01 05:15:25;;;;;;;4.63;1.67;;;10.20;99.90;;;;;;5021835;28;20091;-73
2024/04/01 05:17:51;;;;;;;4.25;1.60;;;10.20;99.90;;;;;;5028333;28;20078;-72
2024/04/01 05:20:17;;;;;;;5.32;1.40;;;10.20;99.90;;;;;;5028497;28;20471;-73
2024/04/01 05:22:42;;;;;;;5.63;1.75;;;10.30;99.90;;;;;;5028689;28;20039;-72
2024/04/01 05:25:08;;;;;;;5.38;1.60;;;10.30;99.90;;;;;;5028139;28;20040;-69
2024/04/01 05:27:34;;;;;;;7.03;2.25;;;10.30;99.90;;;;;;5028343;28;20029;-73
2024/04/01 05:30:09;;;;;;;4.70;1.30;;;10.30;99.90;;;;;;5028004;28;20416;-73
2024/04/01 05:32:36;;;;;;;5.57;2.00;;;10.20;99.90;;;;;;5025159;28;20032;-73
2024/04/01 05:35:05;;;;;;;4.63;1.73;;;10.20;99.90;;;;;;5019797;28;20159;-71
2024/04/01 05:37:32;;;;;;;4.50;1.55;;;10.10;99.90;;;;;;5027406;28;20032;-73
2024/04/01 05:39:58;;;;;;;6.53;1.75;;;10.00;99.90;;;;;;5028165;28;20037;-74
2024/04/01 05:42:24;;;;;;;4.53;2.33;;;10.00;99.90;;;;;;5023900;28;20029;-72
2024/04/01 05:44:50;;;;;;;3.13;1.70;;;10.00;99.90;;;;;;5028164;28;20493;-73
2024/04/01 05:47:16;;;;;;;4.20;1.73;;;9.90;99.90;;;;;;5027424;28;20110;-74
2024/04/01 05:49:42;;;;;;;6.63;2.35;;;9.90;99.90;;;;;;5025273;28;20036;-74
2024/04/01 05:52:08;;;;;;;5.93;3.33;;;9.90;99.90;;;;;;5034114;28;20119;-73
2024/04/01 05:54:34;;;;;;;5.20;2.88;;;9.90;99.90;;;;;;5027047;28;20072;-70
2024/04/01 05:57:00;;;;;;;5.35;2.90;;;9.80;99.90;;;;;;5025947;28;20048;-73
2024/04/01 05:59:27;;;;;;;5.97;2.88;;;9.80;99.90;;;;;;5025795;28;20026;-73
2024/04/01 06:01:53;;;;;;;7.65;3.17;;;9.70;99.90;;;;;;5023099;28;20040;-72
2024/04/01 06:04:23;;;;;;;7.25;3.10;;;9.80;99.90;;;;;;4989610;28;1095814;-74
2024/04/01 06:06:49;;;;;;;5.75;3.13;;;9.80;99.90;;;;;;5007541;28;20100;-70
2024/04/01 06:09:15;;;;;;;8.85;3.15;;;9.70;99.90;;;;;;5026323;28;20072;-74
2024/04/01 06:11:41;;;;;;;6.35;3.28;;;9.60;99.90;;;;;;5027705;28;20052;-73
2024/04/01 06:14:08;;;;;;;3.78;2.70;;;9.60;99.90;;;;;;5027124;28;20029;-72
2024/04/01 06:16:37;;;;;;;9.75;3.15;;;9.50;99.90;;;;;;5029603;28;20032;-72
2024/04/01 06:19:04;;;;;;;5.57;3.17;;;9.50;99.90;;;;;;5026744;28;20143;-72
2024/04/01 06:21:29;;;;;;;5.38;3.03;;;9.60;99.90;;;;;;5027388;28;20033;-74
2024/04/01 06:23:55;;;;;;;4.40;2.72;;;9.50;99.90;;;;;;5027324;28;20356;-74
2024/04/01 06:26:21;;;;;;;4.97;2.70;;;9.40;99.90;;;;;;5026134;28;20471;-73
2024/04/01 06:28:50;;;;;;;5.15;2.70;;;9.40;99.90;;;;;;5027089;28;20041;-70
2024/04/01 06:31:16;;;;;;;3.08;2.30;;;9.40;99.90;;;;;;5027962;28;20029;-76
2024/04/01 06:33:42;;;;;;;8.80;3.00;;;9.30;99.90;;;;;;5027800;28;20027;-77
2024/04/01 06:36:08;;;;;;;5.20;2.75;;;9.30;99.90;;;;;;5026523;28;20523;-78
2024/04/01 06:38:34;;;;;;;4.93;2.90;;;9.20;99.90;;;;;;5027491;28;20036;-76
2024/04/01 06:41:00;;;;;;;3.10;2.25;;;9.20;99.90;;;;;;5023877;28;20030;-75
2024/04/01 06:43:25;;;;;;;5.20;3.20;;;9.20;99.90;;;;;;5028488;28;20454;-75
2024/04/01 06:45:54;;;;;;;5.38;2.53;;;9.20;99.90;;;;;;5026037;28;20025;-75
2024/04/01 06:48:21;;;;;;;5.25;2.60;;;9.20;99.90;;;;;;5027598;28;20104;-78
2024/04/01 06:50:46;;;;;;;2.75;2.40;;;9.20;99.90;;;;;;5027700;28;20129;-76
2024/04/01 06:53:12;;;;;;;4.20;2.40;;;9.20;99.90;;;;;;5026786;28;20518;-77
2024/04/01 06:55:38;;;;;;;5.57;2.30;;;9.20;99.90;;;;;;5027693;28;20161;-77
2024/04/01 06:58:04;;;;;;;4.47;2.55;;;9.20;99.90;;;;;;5022561;28;20033;-76
2024/04/01 07:00:31;;;;;;;3.55;2.35;;;9.20;99.90;;;;;;5027363;28;20051;-76
2024/04/01 07:02:57;;;;;;;2.78;2.20;;;9.20;99.90;;;;;;5026113;28;20033;-77
2024/04/01 07:05:22;;;;;;;2.97;2.20;;;9.20;99.90;;;;;;5026578;28;20494;-75
2024/04/01 07:07:48;;;;;;;5.65;2.20;;;9.20;99.90;;;;;;5022298;28;20056;-75
2024/04/01 07:10:16;;;;;;;4.72;1.95;;;9.20;99.90;;;;;;5027576;28;20022;-79
2024/04/01 07:12:42;;;;;;;2.33;1.83;;;9.20;99.90;;;;;;5025906;28;20701;-80
2024/04/01 07:15:08;;;;;;;3.85;1.83;;;9.20;99.90;;;;;;5024354;28;20059;-77
2024/04/01 07:17:34;;;;;;;6.47;2.58;;;9.20;99.90;;;;;;5026936;28;20021;-80
2024/04/01 07:20:00;;;;;;;3.95;1.70;;;9.20;99.90;;;;;;5030160;28;20117;-74
2024/04/01 07:22:26;;;;;;;3.97;1.33;;;9.20;99.90;;;;;;5027742;28;20096;-77
2024/04/01 07:24:52;;;;;;;3.35;1.27;;;9.20;99.90;;;;;;5025806;28;20120;-78
2024/04/01 07:27:17;;;;;;;2.10;1.20;;;9.10;99.90;;;;;;5026098;28;20026;-77
2024/04/01 07:29:43;;;;;;;1.88;1.35;;;9.20;99.90;;;;;;5024310;28;20034;-77
2024/04/01 07:32:08;;;;;;;4.43;1.33;;;9.20;99.90;;;;;;5023978;28;20037;-79
2024/04/01 07:34:34;;;;;;;4.57;1.50;;;9.20;99.90;;;;;;5024063;28;20040;-75
2024/04/01 07:36:59;;;;;;;3.60;1.45;;;9.20;99.90;;;;;;5022048;28;20041;-73
2024/04/01 07:39:26;;;;;;;1.80;1.10;;;9.20;99.90;;;;;;5028858;28;20037;-76
2024/04/01 07:41:52;;;;;;;3.00;1.27;;;9.20;99.90;;;;;;5022052;28;20033;-74
2024/04/01 07:44:17;;;;;;;3.90;1.60;;;9.10;99.90;;;;;;5026118;28;20497;-76
2024/04/01 07:46:43;;;;;;;3.80;1.20;;;9.20;99.90;;;;;;5026432;28;20029;-76
2024/04/01 07:49:09;;;;;;;3.15;1.40;;;9.20;99.90;;;;;;5025615;28;20040;-74
2024/04/01 07:51:34;;;;;;;5.10;2.25;;;9.20;99.90;;;;;;5024136;28;20030;-76
2024/04/01 07:54:00;;;;;;;2.90;1.52;;;9.20;99.90;;;;;;5032410;28;20040;-77
2024/04/01 07:56:26;;;;;;;2.30;1.70;;;9.20;99.90;;;;;;5039080;28;20360;-75
2024/04/01 07:58:51;;;;;;;4.80;1.60;;;9.20;99.90;;;;;;5023884;28;20034;-73
2024/04/01 08:01:17;;;;;;;3.53;1.20;;;9.30;99.90;;;;;;5019575;28;21468;-74
2024/04/01 08:03:42;;;;;;;1.00;0.88;;;9.30;99.90;;;;;;5027118;28;20029;-75
2024/04/01 08:06:08;;;;;;;2.33;1.25;;;9.30;99.90;;;;;;5022876;28;20351;-75
2024/04/01 08:08:33;;;;;;;2.58;0.57;;;9.30;99.90;;;;;;5025841;28;20615;-75
2024/04/01 08:10:59;;;;;;;1.52;1.08;;;9.30;99.90;;;;;;5022110;28;20029;-76
2024/04/01 08:13:25;;;;;;;3.88;1.45;;;9.30;99.90;;;;;;5025319;28;20471;-76
2024/04/01 08:16:01;;;;;;;3.42;0.82;;;9.20;99.90;;;;;;5025383;28;20037;-74
2024/04/01 08:18:27;;;;;;;2.58;0.65;;;9.20;99.90;;;;;;5022075;28;20044;-74
2024/04/01 08:20:54;;;;;;;0.93;0.60;;;9.20;99.90;;;;;;5025762;28;20027;-74
2024/04/01 08:23:19;;;;;;;2.67;0.75;;;9.30;99.90;;;;;;5027308;28;20143;-75
2024/04/01 08:25:46;;;;;;;3.10;0.70;;;9.20;99.90;;;;;;5029394;28;20449;-74
2024/04/01 08:28:12;;;;;;;3.00;0.85;;;9.30;99.90;;;;;;5026168;28;20041;-74
2024/04/01 08:30:37;;;;;;;5.50;1.10;;;9.30;99.90;;;;;;5025124;28;20041;-79
2024/04/01 08:33:03;;;;;;;3.30;0.68;;;9.40;99.90;;;;;;5028588;28;20044;-75
2024/04/01 08:35:29;;;;;;;1.73;0.98;;;9.40;99.90;;;;;;5028936;28;20075;-76
2024/04/01 08:37:54;;;;;;;7.20;1.42;;;9.40;99.90;;;;;;5028947;28;20029;-76
2024/04/01 08:40:20;;;;;;;2.10;0.40;;;9.30;99.90;;;;;;5026991;28;20029;-75
2024/04/01 08:42:52;;;;;;;2.75;0.38;;;9.30;99.90;;;;;;5028988;28;20434;-75
2024/04/01 08:45:18;;;;;;;0.90;0.30;;;9.30;99.90;;;;;;5027517;28;20036;-81
2024/04/01 08:47:50;;;;;;;1.45;0.70;;;9.30;99.90;;;;;;5027372;28;20045;-82
2024/04/01 08:50:22;;;;;;;1.40;0.40;;;9.30;99.90;;;;;;5037612;28;20105;-78
2024/04/01 08:53:07;;;;;;;0.63;0.25;;;9.40;99.90;;;;;;5028497;28;20049;-73
2024/04/01 08:55:34;;;;;;;2.90;0.20;;;9.60;99.90;;;;;;5026225;28;20025;-75
2024/04/01 08:58:00;;;;;;;1.17;0.30;;;9.70;99.90;;;;;;5041253;28;20053;-75
2024/04/01 09:00:26;;;;;;;0.38;0.20;;;9.70;99.90;;;;;;5026565;28;20529;-75
2024/04/01 09:02:52;;;;;;;0.70;0.32;;;9.80;99.90;;;;;;5026911;28;20441;-79
2024/04/01 09:05:17;;;;;;;0.65;0.40;;;10.00;99.90;;;;;;5028813;28;20117;-74
2024/04/01 09:07:43;;;;;;;1.45;0.25;;;10.10;99.90;;;;;;5024892;28;20131;-76
2024/04/01 09:10:09;;;;;;;1.92;0.10;;;10.10;99.90;;;;;;5028106;28;20036;-76
2024/04/01 09:12:34;;;;;;;0.30;0.25;;;10.30;99.90;;;;;;5028012;28;20026;-75
2024/04/01 09:15:00;;;;;;;0.40;0.28;;;10.50;99.90;;;;;;5028926;28;20091;-75
2024/04/01 09:17:26;;;;;;;0.63;0.47;;;10.50;99.90;;;;;;5027893;28;20462;-76
2024/04/01 09:19:52;;;;;;;2.42;0.45;;;10.60;99.90;;;;;;5028698;28;21504;-75
2024/04/01 09:22:18;;;;;;;2.33;0.30;;;10.70;99.90;;;;;;5024721;28;20057;-77
2024/04/01 09:24:45;;;;;;;0.50;0.20;;;10.80;99.90;;;;;;5028133;28;20024;-73
2024/04/01 09:27:11;;;;;;;0.50;0.30;;;10.90;99.90;;;;;;5025726;28;20201;-74
2024/04/01 09:29:36;;;;;;;0.47;0.20;;;11.00;99.90;;;;;;5026248;28;20095;-75
2024/04/01 09:32:03;;;;;;;1.23;0.20;;;11.20;99.90;;;;;;5027613;28;20025;-74
2024/04/01 09:34:31;;;;;;;0.20;0.13;;;11.30;99.90;;;;;;5027141;28;20048;-74
2024/04/01 09:36:57;;;;;;;0.10;0.10;;;11.40;99.90;;;;;;5021326;28;20035;-74
2024/04/01 09:39:23;;;;;;;0.10;0.10;;;11.60;99.90;;;;;;5021349;28;20155;-74
2024/04/01 09:41:50;;;;;;;0.88;0.10;;;11.70;99.90;;;;;;5027854;28;20026;-82
2024/04/01 09:44:15;;;;;;;0.90;0.25;;;11.90;99.90;;;;;;5028643;28;20037;-79
2024/04/01 09:46:41;;;;;;;0.10;0.10;;;11.90;99.90;;;;;;5024645;28;20498;-77
2024/04/01 09:49:07;;;;;;;0.60;0.30;;;12.00;99.90;;;;;;5026342;28;20041;-80
2024/04/01 09:51:34;;;;;;;0.98;0.20;;;12.00;99.90;;;;;;5028399;28;20036;-75
2024/04/01 09:54:00;;;;;;;0.10;0.00;;;11.90;99.90;;;;;;5028325;28;20065;-78
2024/04/01 09:57:12;;;;;;;0.70;0.30;;;11.90;99.90;;;;;;5023266;28;20052;-82
2024/04/01 10:00:09;;;;;;;2.15;0.10;;;11.90;99.90;;;;;;4976045;28;20509;-76
2024/04/01 10:03:14;;;;;;;0.03;0.03;;;11.90;99.90;;;;;;5036908;28;20098;-75
2024/04/01 10:05:54;;;;;;;0.80;0.80;;;11.90;99.90;;;;;;5021598;28;20076;-76
2024/04/01 10:08:51;;;;;;;0.68;0.63;;;12.10;99.90;;;;;;5024614;28;20040;-73
2024/04/01 10:11:37;;;;;;;0.10;0.10;;;12.00;99.90;;;;;;5024625;28;20033;-74
2024/04/01 10:14:47;;;;;;;0.20;0.10;;;12.10;99.90;;;;;;5026112;28;20041;-76
2024/04/01 10:17:20;;;;;;;0.10;0.10;;;12.20;99.90;;;;;;5026360;28;20533;-75
2024/04/01 10:19:57;;;;;;;0.10;0.10;;;12.40;99.90;;;;;;5025085;28;20095;-74
2024/04/01 10:22:28;;;;;;;0.30;0.22;;;12.50;99.90;;;;;;5022002;28;20025;-79
2024/04/01 10:25:47;;;;;;;0.30;0.10;;;12.40;99.90;;;;;;5021465;28;20111;-77
2024/04/01 10:28:48;;;;;;;0.13;0.10;;;12.30;99.90;;;;;;4988796;28;20050;-75
2024/04/01 10:32:05;;;;;;;0.20;0.20;;;12.20;99.90;;;;;;5025793;28;20422;-74
2024/04/01 10:35:01;;;;;;;0.65;0.30;;;12.10;99.90;;;;;;4991725;28;20080;-75
2024/04/01 10:37:47;;;;;;;0.32;0.13;;;12.00;99.90;;;;;;5017649;28;20029;-76
2024/04/01 10:40:25;;;;;;;0.32;0.17;;;11.90;99.90;;;;;;5026517;28;20113;-76
2024/04/01 10:43:10;;;;;;;0.00;0.00;;;11.80;99.90;;;;;;5029335;28;20156;-75
2024/04/01 10:46:24;;;;;;;0.50;0.50;;;11.70;99.90;;;;;;5031798;28;20500;-75
2024/04/01 10:49:11;;;;;;;5.40;3.28;;;11.70;99.90;;;;;;5036670;28;20037;-75
2024/04/01 10:52:06;;;;;;;1.40;0.73;;;11.70;99.90;;;;;;5027674;28;21231;-77
2024/04/01 10:54:51;;;;;;;0.50;0.50;;;11.60;99.90;;;;;;5032751;28;20045;-76
2024/04/01 10:57:40;;;;;;;0.40;0.40;;;11.60;99.90;;;;;;5031118;28;20029;-75
2024/04/01 11:00:47;;;;;;;0.68;0.57;;;11.60;99.90;;;;;;5008733;28;20045;-77
2024/04/01 11:03:45;;;;;;;4.45;2.70;;;11.90;99.90;;;;;;5031885;28;20064;-75
2024/04/01 11:06:16;;;;;;;0.80;0.40;;;11.90;99.90;;;;;;5010560;28;20049;-75
2024/04/01 11:09:14;;;;;;;0.30;0.20;;;12.00;99.90;;;;;;5032950;28;20234;-76
2024/04/01 11:11:57;;;;;;;0.30;0.10;;;12.00;99.90;;;;;;5021462;28;20091;-75
2024/04/01 11:14:24;;;;;;;0.65;0.20;;;12.20;99.90;;;;;;5028512;28;20041;-75
2024/04/01 11:16:54;;;;;;;0.38;0.10;;;12.40;99.90;;;;;;5034742;28;20045;-75
2024/04/01 11:19:33;;;;;;;0.55;0.20;;;12.40;99.90;;;;;;5031107;28;20059;-75
2024/04/01 11:22:04;;;;;;;0.40;0.40;;;12.50;99.90;;;;;;5029447;28;20033;-75
2024/04/01 11:24:53;;;;;;;0.30;0.30;;;12.50;99.90;;;;;;5030185;28;20624;-75
2024/04/01 11:27:31;;;;;;;0.25;0.22;;;12.50;99.90;;;;;;5027320;28;20022;-74
2024/04/01 11:30:07;;;;;;;0.30;0.30;;;12.30;99.90;;;;;;5023689;28;20447;-75
2024/04/01 11:32:38;;;;;;;1.13;1.02;;;12.20;99.90;;;;;;5030502;28;20029;-75
2024/04/01 11:35:24;;;;;;;0.77;0.45;;;12.20;99.90;;;;;;5029583;28;20529;-75
2024/04/01 11:38:08;;;;;;;0.15;0.10;;;12.20;99.90;;;;;;5022528;28;21904;-74
2024/04/01 11:40:36;;;;;;;0.82;0.20;;;12.30;99.90;;;;;;5029314;28;20055;-75
2024/04/01 11:43:06;;;;;;;0.10;0.10;;;12.30;99.90;;;;;;5033038;28;20034;-74
2024/04/01 11:45:38;;;;;;;0.30;0.28;;;12.30;99.90;;;;;;5028143;28;20084;-75
2024/04/01 11:48:05;;;;;;;2.30;0.60;;;12.20;99.90;;;;;;5020695;28;20037;-76
2024/04/01 11:50:31;;;;;;;1.15;0.40;;;12.10;99.90;;;;;;5022578;28;20104;-75
2024/04/01 11:52:57;;;;;;;0.47;0.20;;;12.00;99.90;;;;;;5029144;28;20112;-76
2024/04/01 11:55:23;;;;;;;0.47;0.30;;;11.80;99.90;;;;;;5030603;28;20041;-75
2024/04/01 11:57:50;;;;;;;0.38;0.20;;;11.60;99.90;;;;;;5030115;28;20038;-75
2024/04/01 12:00:16;;;;;;;0.20;0.10;;;11.50;99.90;;;;;;5031390;28;20441;-75
2024/04/01 12:02:54;;;;;;;0.20;0.20;;;11.70;99.90;;;;;;5036300;28;20028;-74
2024/04/01 12:05:20;;;;;;;2.38;0.20;;;11.80;99.90;;;;;;5037988;28;20045;-79
2024/04/01 12:07:49;;;;;;;1.67;0.13;;;12.00;99.90;;;;;;5027633;28;20029;-77
2024/04/01 12:10:15;;;;;;;0.30;0.20;;;12.10;99.90;;;;;;5030361;28;20041;-76
2024/04/01 12:12:40;;;;;;;0.25;0.10;;;12.30;99.90;;;;;;5025352;28;20055;-75
2024/04/01 12:15:08;;;;;;;0.40;0.13;;;12.50;99.90;;;;;;5035820;28;20032;-76
2024/04/01 12:17:36;;;;;;;0.10;0.10;;;12.80;99.90;;;;;;5028369;28;20025;-75
2024/04/01 12:20:04;;;;;;;1.05;0.10;;;13.00;99.90;;;;;;5026325;28;20038;-75
2024/04/01 12:22:29;;;;;;;0.10;0.10;;;13.20;99.90;;;;;;5031068;28;20425;-74
2024/04/01 12:24:59;;;;;;;1.08;0.10;;;13.30;99.90;;;;;;5026254;28;20020;-74
2024/04/01 12:27:29;;;;;;;1.80;0.20;;;13.40;99.90;;;;;;5031745;28;20038;-75
2024/04/01 12:29:55;;;;;;;;;;;13.60;99.90;;;;;;5032391;28;20091;-76
2024/04/01 12:32:23;;;;;;;0.30;0.30;;;14.00;99.90;;;;;;5027051;28;19909;-78
2024/04/01 12:34:51;;;;;;;0.38;0.10;;;14.60;99.90;;;;;;5033820;28;20067;-76
2024/04/01 12:37:16;;;;;;;0.13;0.13;;;15.10;99.90;;;;;;5025480;28;20026;-77
2024/04/01 12:39:48;;;;;;;0.52;0.17;;;15.30;99.90;;;;;;5026649;28;20045;-76
2024/04/01 12:42:17;;;;;;;0.08;0.08;;;15.20;99.90;;;;;;5024895;28;20025;-74
2024/04/01 12:44:44;;;;;;;0.03;0.03;;;14.90;99.90;;;;;;5028417;28;20501;-75
2024/04/01 12:47:13;;;;;;;0.85;0.10;;;14.70;99.90;;;;;;5025009;28;20025;-74
2024/04/01 12:49:40;;;;;;;0.17;0.15;;;14.30;99.90;;;;;;5029626;28;20140;-79
2024/04/01 12:52:07;;;;;;;0.10;0.10;;;14.20;99.90;;;;;;5028233;28;20025;-73
2024/04/01 12:54:56;;;;;;;0.20;0.10;;;14.00;99.90;;;;;;5026547;28;20232;-76
2024/04/01 12:57:48;;;;;;;1.10;0.20;;;13.90;99.90;;;;;;5027948;28;20060;-74
2024/04/01 13:00:22;;;;;;;0.10;0.10;;;13.90;99.90;;;;;;5033016;28;20705;-73